sensor_id;sensor_type;location;lat;lon;timestamp;P1;durP1;ratioP1;P2;durP2;ratioP2
56631;SDS011;42503;39.928;-75.152;2023-06-10T00:01:00;7.53;;;5.50;;
56631;SDS011;42503;39.928;-75.152;2023-06-10T00:11:02;7.43;;;6.32;;
56631;SDS011;42503;39.928;-75.152;2023-06-10T00:21:04;6.85;;;6.15;;
56631;SDS011;42503;39.928;-75.152;2023-06-10T00:31:05;7.88;;;6.45;;
56631;SDS011;42503;39.928;-75.152;2023-06-10T00:41:06;8.07;;;6.18;;
56631;SDS011;42503;39.928;-75.152;2023-06-10T00:51:08;8.43;;;5.85;;
56631;SDS011;42503;39.928;-75.152;2023-06-10T01:01:10;6.20;;;5.60;;
56631;SDS011;42503;39.928;-75.152;2023-06-10T01:11:17;5.70;;;5.10;;
56631;SDS011;42503;39.928;-75.152;2023-06-10T01:21:24;6.50;;;5.35;;
56631;SDS011;42503;39.928;-75.152;2023-06-10T01:31:31;6.20;;;5.32;;
56631;SDS011;42503;39.928;-75.152;2023-06-10T01:41:57;5.60;;;5.03;;
56631;SDS011;42503;39.928;-75.152;2023-06-10T01:52:00;6.38;;;4.93;;
56631;SDS011;42503;39.928;-75.152;2023-06-10T02:02:01;5.93;;;5.28;;
56631;SDS011;42503;39.928;-75.152;2023-06-10T02:12:03;5.40;;;4.90;;
56631;SDS011;42503;39.928;-75.152;2023-06-10T02:22:05;7.00;;;5.22;;
56631;SDS011;42503;39.928;-75.152;2023-06-10T02:32:06;5.30;;;4.80;;
56631;SDS011;42503;39.928;-75.152;2023-06-10T02:42:08;5.15;;;4.65;;
56631;SDS011;42503;39.928;-75.152;2023-06-10T02:52:11;5.60;;;4.43;;
56631;SDS011;42503;39.928;-75.152;2023-06-10T03:02:12;6.75;;;4.95;;
56631;SDS011;42503;39.928;-75.152;2023-06-10T03:12:14;4.97;;;4.47;;
56631;SDS011;42503;39.928;-75.152;2023-06-10T03:22:16;6.53;;;5.15;;
56631;SDS011;42503;39.928;-75.152;2023-06-10T03:32:18;5.38;;;4.72;;
56631;SDS011;42503;39.928;-75.152;2023-06-10T03:42:19;5.03;;;4.40;;
56631;SDS011;42503;39.928;-75.152;2023-06-10T03:52:20;6.03;;;4.85;;
56631;SDS011;42503;39.928;-75.152;2023-06-10T04:02:24;5.40;;;4.88;;
56631;SDS011;42503;39.928;-75.152;2023-06-10T04:12:26;4.72;;;4.28;;
56631;SDS011;42503;39.928;-75.152;2023-06-10T04:22:27;5.95;;;4.78;;
56631;SDS011;42503;39.928;-75.152;2023-06-10T04:32:28;5.45;;;4.07;;
56631;SDS011;42503;39.928;-75.152;2023-06-10T04:42:30;6.18;;;5.18;;
56631;SDS011;42503;39.928;-75.152;2023-06-10T04:52:31;5.97;;;4.68;;
56631;SDS011;42503;39.928;-75.152;2023-06-10T05:02:34;6.07;;;4.47;;
56631;SDS011;42503;39.928;-75.152;2023-06-10T05:12:35;5.55;;;4.50;;
56631;SDS011;42503;39.928;-75.152;2023-06-10T05:22:39;6.97;;;4.82;;
56631;SDS011;42503;39.928;-75.152;2023-06-10T05:32:40;5.28;;;4.40;;
56631;SDS011;42503;39.928;-75.152;2023-06-10T05:42:41;5.30;;;3.90;;
56631;SDS011;42503;39.928;-75.152;2023-06-10T05:52:43;5.03;;;4.28;;
56631;SDS011;42503;39.928;-75.152;2023-06-10T06:02:44;6.15;;;4.20;;
56631;SDS011;42503;39.928;-75.152;2023-06-10T06:12:45;5.10;;;4.40;;
56631;SDS011;42503;39.928;-75.152;2023-06-10T06:22:47;5.28;;;4.10;;
56631;SDS011;42503;39.928;-75.152;2023-06-10T06:32:48;5.53;;;4.93;;
56631;SDS011;42503;39.928;-75.152;2023-06-10T06:42:49;4.53;;;3.85;;
56631;SDS011;42503;39.928;-75.152;2023-06-10T06:52:51;4.75;;;4.28;;
56631;SDS011;42503;39.928;-75.152;2023-06-10T07:02:55;4.88;;;4.10;;
56631;SDS011;42503;39.928;-75.152;2023-06-10T07:12:57;4.72;;;3.90;;
56631;SDS011;42503;39.928;-75.152;2023-06-10T07:22:59;4.65;;;3.58;;
56631;SDS011;42503;39.928;-75.152;2023-06-10T07:33:00;4.50;;;4.03;;
56631;SDS011;42503;39.928;-75.152;2023-06-10T07:43:06;4.88;;;4.28;;
56631;SDS011;42503;39.928;-75.152;2023-06-10T07:53:07;4.53;;;3.72;;
56631;SDS011;42503;39.928;-75.152;2023-06-10T08:03:09;5.13;;;3.97;;
56631;SDS011;42503;39.928;-75.152;2023-06-10T08:13:10;4.05;;;3.55;;
56631;SDS011;42503;39.928;-75.152;2023-06-10T08:23:11;4.35;;;3.95;;
56631;SDS011;42503;39.928;-75.152;2023-06-10T08:33:13;4.43;;;4.03;;
56631;SDS011;42503;39.928;-75.152;2023-06-10T08:43:33;5.35;;;3.92;;
56631;SDS011;42503;39.928;-75.152;2023-06-10T08:53:46;4.20;;;3.60;;
56631;SDS011;42503;39.928;-75.152;2023-06-10T09:03:53;4.15;;;3.75;;
56631;SDS011;42503;39.928;-75.152;2023-06-10T09:13:56;4.38;;;3.67;;
56631;SDS011;42503;39.928;-75.152;2023-06-10T09:24:00;3.95;;;3.55;;
56631;SDS011;42503;39.928;-75.152;2023-06-10T09:34:11;5.72;;;3.92;;
56631;SDS011;42503;39.928;-75.152;2023-06-10T09:44:18;3.55;;;3.25;;
56631;SDS011;42503;39.928;-75.152;2023-06-10T09:54:21;4.20;;;3.78;;
56631;SDS011;42503;39.928;-75.152;2023-06-10T10:04:23;4.95;;;3.95;;
56631;SDS011;42503;39.928;-75.152;2023-06-10T10:14:25;4.07;;;3.67;;
56631;SDS011;42503;39.928;-75.152;2023-06-10T10:24:41;4.77;;;4.37;;
56631;SDS011;42503;39.928;-75.152;2023-06-10T10:34:57;5.47;;;4.80;;
56631;SDS011;42503;39.928;-75.152;2023-06-10T10:45:17;5.63;;;4.25;;
56631;SDS011;42503;39.928;-75.152;2023-06-10T10:55:20;4.38;;;3.97;;
56631;SDS011;42503;39.928;-75.152;2023-06-10T11:05:30;4.97;;;4.32;;
56631;SDS011;42503;39.928;-75.152;2023-06-10T11:15:45;4.78;;;4.20;;
56631;SDS011;42503;39.928;-75.152;2023-06-10T11:25:50;5.50;;;4.57;;
56631;SDS011;42503;39.928;-75.152;2023-06-10T11:35:52;5.20;;;4.70;;
56631;SDS011;42503;39.928;-75.152;2023-06-10T11:45:54;5.20;;;4.55;;
56631;SDS011;42503;39.928;-75.152;2023-06-10T11:55:56;5.78;;;4.82;;
56631;SDS011;42503;39.928;-75.152;2023-06-10T12:05:58;5.18;;;4.68;;
56631;SDS011;42503;39.928;-75.152;2023-06-10T12:16:10;6.07;;;5.45;;
56631;SDS011;42503;39.928;-75.152;2023-06-10T12:26:11;5.90;;;5.30;;
56631;SDS011;42503;39.928;-75.152;2023-06-10T12:36:17;6.50;;;5.60;;
56631;SDS011;42503;39.928;-75.152;2023-06-10T12:46:19;6.65;;;5.90;;
56631;SDS011;42503;39.928;-75.152;2023-06-10T12:56:20;6.95;;;5.93;;
56631;SDS011;42503;39.928;-75.152;2023-06-10T13:06:22;7.05;;;6.20;;
56631;SDS011;42503;39.928;-75.152;2023-06-10T13:16:24;6.97;;;6.28;;
56631;SDS011;42503;39.928;-75.152;2023-06-10T13:26:26;7.05;;;6.32;;
56631;SDS011;42503;39.928;-75.152;2023-06-10T13:36:30;7.22;;;6.47;;
56631;SDS011;42503;39.928;-75.152;2023-06-10T13:46:31;7.20;;;6.40;;
56631;SDS011;42503;39.928;-75.152;2023-06-10T13:56:32;9.00;;;7.18;;
56631;SDS011;42503;39.928;-75.152;2023-06-10T14:06:41;7.75;;;7.00;;
56631;SDS011;42503;39.928;-75.152;2023-06-10T14:16:43;8.13;;;6.88;;
56631;SDS011;42503;39.928;-75.152;2023-06-10T14:26:44;7.60;;;6.40;;
56631;SDS011;42503;39.928;-75.152;2023-06-10T14:36:49;9.00;;;7.68;;
56631;SDS011;42503;39.928;-75.152;2023-06-10T14:46:50;8.88;;;7.47;;
56631;SDS011;42503;39.928;-75.152;2023-06-10T14:56:51;8.30;;;7.35;;
56631;SDS011;42503;39.928;-75.152;2023-06-10T15:06:58;9.30;;;8.40;;
56631;SDS011;42503;39.928;-75.152;2023-06-10T15:16:59;9.45;;;8.35;;
56631;SDS011;42503;39.928;-75.152;2023-06-10T15:27:01;10.02;;;8.60;;
56631;SDS011;42503;39.928;-75.152;2023-06-10T15:37:02;10.52;;;8.85;;
56631;SDS011;42503;39.928;-75.152;2023-06-10T15:47:06;11.05;;;9.82;;
56631;SDS011;42503;39.928;-75.152;2023-06-10T15:57:08;11.23;;;10.00;;
56631;SDS011;42503;39.928;-75.152;2023-06-10T16:07:10;12.80;;;10.93;;
56631;SDS011;42503;39.928;-75.152;2023-06-10T16:17:11;12.18;;;10.98;;
56631;SDS011;42503;39.928;-75.152;2023-06-10T16:27:12;12.15;;;10.82;;
56631;SDS011;42503;39.928;-75.152;2023-06-10T16:37:14;12.27;;;11.00;;
56631;SDS011;42503;39.928;-75.152;2023-06-10T16:47:15;15.07;;;10.90;;
56631;SDS011;42503;39.928;-75.152;2023-06-10T16:57:17;14.68;;;12.15;;
56631;SDS011;42503;39.928;-75.152;2023-06-10T17:07:18;12.73;;;11.43;;
56631;SDS011;42503;39.928;-75.152;2023-06-10T17:17:22;13.13;;;11.82;;
56631;SDS011;42503;39.928;-75.152;2023-06-10T17:27:23;14.10;;;10.98;;
56631;SDS011;42503;39.928;-75.152;2023-06-10T17:37:25;12.95;;;11.52;;
56631;SDS011;42503;39.928;-75.152;2023-06-10T17:47:26;12.27;;;10.90;;
56631;SDS011;42503;39.928;-75.152;2023-06-10T17:57:28;12.80;;;11.15;;
56631;SDS011;42503;39.928;-75.152;2023-06-10T18:07:31;11.18;;;10.07;;
56631;SDS011;42503;39.928;-75.152;2023-06-10T18:17:35;11.80;;;10.60;;
56631;SDS011;42503;39.928;-75.152;2023-06-10T18:27:36;11.10;;;10.00;;
56631;SDS011;42503;39.928;-75.152;2023-06-10T18:37:38;12.60;;;10.73;;
56631;SDS011;42503;39.928;-75.152;2023-06-10T18:47:43;11.15;;;10.05;;
56631;SDS011;42503;39.928;-75.152;2023-06-10T18:57:44;12.88;;;10.73;;
56631;SDS011;42503;39.928;-75.152;2023-06-10T19:07:45;11.50;;;10.00;;
56631;SDS011;42503;39.928;-75.152;2023-06-10T19:17:47;11.00;;;9.90;;
56631;SDS011;42503;39.928;-75.152;2023-06-10T19:27:48;11.95;;;10.60;;
56631;SDS011;42503;39.928;-75.152;2023-06-10T19:37:49;11.48;;;10.27;;
56631;SDS011;42503;39.928;-75.152;2023-06-10T19:47:53;12.15;;;10.68;;
56631;SDS011;42503;39.928;-75.152;2023-06-10T19:57:54;12.32;;;11.02;;
56631;SDS011;42503;39.928;-75.152;2023-06-10T20:07:55;11.85;;;10.65;;
56631;SDS011;42503;39.928;-75.152;2023-06-10T20:17:57;11.80;;;10.60;;
56631;SDS011;42503;39.928;-75.152;2023-06-10T20:27:59;11.82;;;10.68;;
56631;SDS011;42503;39.928;-75.152;2023-06-10T20:38:00;11.73;;;10.52;;
56631;SDS011;42503;39.928;-75.152;2023-06-10T20:48:02;12.20;;;10.90;;
56631;SDS011;42503;39.928;-75.152;2023-06-10T20:58:04;12.27;;;10.98;;
56631;SDS011;42503;39.928;-75.152;2023-06-10T21:08:05;12.77;;;11.48;;
56631;SDS011;42503;39.928;-75.152;2023-06-10T21:18:08;11.77;;;10.57;;
56631;SDS011;42503;39.928;-75.152;2023-06-10T21:28:09;12.85;;;11.45;;
56631;SDS011;42503;39.928;-75.152;2023-06-10T21:38:15;12.45;;;11.15;;
56631;SDS011;42503;39.928;-75.152;2023-06-10T21:48:16;12.70;;;11.43;;
56631;SDS011;42503;39.928;-75.152;2023-06-10T21:58:18;12.57;;;10.90;;
56631;SDS011;42503;39.928;-75.152;2023-06-10T22:08:19;12.60;;;11.38;;
56631;SDS011;42503;39.928;-75.152;2023-06-10T22:18:20;13.15;;;11.30;;
56631;SDS011;42503;39.928;-75.152;2023-06-10T22:28:22;13.07;;;11.77;;
56631;SDS011;42503;39.928;-75.152;2023-06-10T22:38:23;13.60;;;12.18;;
56631;SDS011;42503;39.928;-75.152;2023-06-10T22:48:25;13.15;;;11.82;;
56631;SDS011;42503;39.928;-75.152;2023-06-10T22:58:26;13.18;;;11.80;;
56631;SDS011;42503;39.928;-75.152;2023-06-10T23:08:27;13.10;;;11.77;;
56631;SDS011;42503;39.928;-75.152;2023-06-10T23:18:29;12.90;;;11.60;;
56631;SDS011;42503;39.928;-75.152;2023-06-10T23:28:30;12.63;;;11.43;;
56631;SDS011;42503;39.928;-75.152;2023-06-10T23:38:32;12.68;;;11.48;;
56631;SDS011;42503;39.928;-75.152;2023-06-10T23:48:36;13.32;;;11.88;;
56631;SDS011;42503;39.928;-75.152;2023-06-10T23:58:37;12.38;;;11.13;;
